createdAt,value
2022-10-31T00:01:23.380Z,10.57
2022-10-31T00:05:25.082Z,10.33
2022-10-31T00:09:26.788Z,11.80
2022-10-31T00:13:29.495Z,9.57
2022-10-31T00:17:31.770Z,11.43
2022-10-31T00:21:34.514Z,13.13
2022-10-31T00:25:39.086Z,9.40
2022-10-31T00:29:40.773Z,10.80
2022-10-31T00:33:42.996Z,9.80
2022-10-31T00:37:46.532Z,9.47
2022-10-31T00:41:48.273Z,13.40
2022-10-31T00:45:50.692Z,11.37
2022-10-31T00:49:52.375Z,8.80
2022-10-31T00:53:54.251Z,10.93
2022-10-31T00:57:56.024Z,8.50
2022-10-31T01:01:58.222Z,8.00
2022-10-31T01:06:06.799Z,7.03
2022-10-31T01:10:09.548Z,7.17
2022-10-31T01:14:12.439Z,14.00
2022-10-31T01:18:14.096Z,13.23
2022-10-31T01:22:15.784Z,11.73
2022-10-31T01:26:24.374Z,12.17
2022-10-31T01:30:28.029Z,10.57
2022-10-31T01:34:29.811Z,10.70
2022-10-31T01:38:31.626Z,9.50
2022-10-31T01:42:33.328Z,11.23
2022-10-31T01:46:39.473Z,10.73
2022-10-31T01:50:43.513Z,10.33
2022-10-31T01:54:52.225Z,8.67
2022-10-31T01:58:56.392Z,8.43
2022-10-31T02:02:58.375Z,7.63
2022-10-31T02:07:04.853Z,8.00
2022-10-31T02:11:08.393Z,5.63
2022-10-31T02:15:11.126Z,13.17
2022-10-31T02:19:37.827Z,6.90
2022-10-31T02:23:54.885Z,6.47
2022-10-31T02:28:14.571Z,6.27
2022-10-31T02:32:28.308Z,7.93
2022-10-31T02:36:36.545Z,9.40
2022-10-31T02:40:48.956Z,9.43
2022-10-31T02:44:57.336Z,6.27
2022-10-31T02:49:06.588Z,8.07
2022-10-31T02:53:08.264Z,8.60
2022-10-31T02:57:14.907Z,7.57
2022-10-31T03:01:46.014Z,8.73
2022-10-31T03:06:01.409Z,10.43
2022-10-31T03:10:25.110Z,7.00
2022-10-31T03:14:53.862Z,10.87
2022-10-31T03:19:36.596Z,7.83
2022-10-31T03:23:40.309Z,12.57
2022-10-31T03:27:44.615Z,8.13
2022-10-31T03:31:54.000Z,9.17
2022-10-31T03:35:58.442Z,6.70
2022-10-31T03:40:03.416Z,7.67
2022-10-31T03:44:15.898Z,8.63
2022-10-31T03:48:21.659Z,6.23
2022-10-31T03:52:41.750Z,5.17
2022-10-31T03:56:53.967Z,13.67
2022-10-31T04:00:59.489Z,10.07
2022-10-31T04:05:02.179Z,5.77
2022-10-31T04:09:07.827Z,10.20
2022-10-31T04:13:13.703Z,8.40
2022-10-31T04:17:18.826Z,10.00
2022-10-31T04:21:20.528Z,9.17
2022-10-31T04:25:22.295Z,9.50
2022-10-31T04:29:24.200Z,5.90
2022-10-31T04:33:26.102Z,11.70
2022-10-31T04:37:27.857Z,12.97
2022-10-31T04:45:45.352Z,7.93
2022-10-31T04:49:47.010Z,6.83
2022-10-31T04:53:48.888Z,6.93
2022-10-31T04:57:52.013Z,7.47
2022-10-31T05:01:54.265Z,10.10
2022-10-31T05:05:56.069Z,5.80
2022-10-31T05:09:57.813Z,8.80
2022-10-31T05:13:59.492Z,7.53
2022-10-31T05:18:01.485Z,9.97
2022-10-31T05:22:03.569Z,10.13
2022-10-31T05:26:05.687Z,7.50
2022-10-31T05:30:07.935Z,8.83
2022-10-31T05:34:09.815Z,12.27
2022-10-31T05:38:11.537Z,12.90
2022-10-31T05:42:13.242Z,8.53
2022-10-31T05:46:15.020Z,11.73
2022-10-31T05:50:16.749Z,7.43
2022-10-31T05:54:18.674Z,12.20
2022-10-31T05:58:20.363Z,8.23
2022-10-31T06:02:22.465Z,9.13
2022-10-31T06:06:24.140Z,6.87
2022-10-31T06:10:26.704Z,8.10
2022-10-31T06:14:28.780Z,6.80
2022-10-31T06:18:33.616Z,14.43
2022-10-31T06:22:36.023Z,9.37
2022-10-31T06:26:37.902Z,9.10
2022-10-31T06:30:39.819Z,8.53
2022-10-31T06:34:42.719Z,19.43
2022-10-31T06:38:44.469Z,8.93
2022-10-31T06:42:46.170Z,12.50
2022-10-31T06:46:49.198Z,10.60
2022-10-31T06:50:52.094Z,8.10
2022-10-31T06:54:55.471Z,9.07
2022-10-31T06:59:01.088Z,10.90
2022-10-31T07:03:05.210Z,9.80
2022-10-31T07:07:06.894Z,7.03
2022-10-31T07:11:08.640Z,14.43
2022-10-31T07:15:10.784Z,12.33
2022-10-31T07:19:12.429Z,11.70
2022-10-31T07:23:14.779Z,10.93
2022-10-31T07:27:16.709Z,19.90
2022-10-31T07:31:18.773Z,13.67
2022-10-31T07:35:22.834Z,25.10
2022-10-31T07:39:24.533Z,22.30
2022-10-31T07:43:26.204Z,13.27
2022-10-31T07:47:27.956Z,14.60
2022-10-31T07:51:30.343Z,12.93
2022-10-31T07:55:32.933Z,9.87
2022-10-31T07:59:34.697Z,12.47
2022-10-31T08:03:36.445Z,10.20
2022-10-31T08:07:38.779Z,12.77
2022-10-31T08:11:40.568Z,13.60
2022-10-31T08:15:43.095Z,11.07
2022-10-31T08:19:44.799Z,10.90
2022-10-31T08:23:46.605Z,13.87
2022-10-31T08:27:52.611Z,16.33
2022-10-31T08:31:54.325Z,10.27
2022-10-31T08:35:56.007Z,13.57
2022-10-31T08:39:57.745Z,15.73
2022-10-31T08:44:00.496Z,15.00
2022-10-31T08:48:05.377Z,14.70
2022-10-31T08:52:10.684Z,10.17
2022-10-31T08:56:15.989Z,10.03
2022-10-31T09:00:17.811Z,14.75
2022-10-31T09:04:22.729Z,14.83
2022-10-31T09:08:24.913Z,18.98
2022-10-31T09:12:26.732Z,28.90
2022-10-31T09:16:28.470Z,31.40
2022-10-31T09:20:31.608Z,21.92
2022-10-31T09:25:05.267Z,34.20
2022-10-31T09:33:35.979Z,22.77
2022-10-31T09:37:50.822Z,20.60
2022-10-31T09:42:11.164Z,25.00
2022-10-31T09:47:10.587Z,23.40
2022-10-31T09:51:18.007Z,14.63
2022-10-31T09:56:05.960Z,18.33
2022-10-31T10:00:16.284Z,18.73
2022-10-31T10:04:43.974Z,20.23
2022-10-31T10:13:15.596Z,21.50
2022-10-31T10:17:38.882Z,15.03
2022-10-31T10:22:10.623Z,19.38
2022-10-31T10:26:20.292Z,22.17
2022-10-31T10:30:43.891Z,27.88
2022-10-31T10:34:51.047Z,28.63
2022-10-31T10:39:04.605Z,34.33
2022-10-31T10:43:25.069Z,29.92
2022-10-31T10:47:42.321Z,28.75
2022-10-31T10:56:41.600Z,31.77
2022-10-31T11:00:47.651Z,26.45
2022-10-31T11:04:54.108Z,25.85
2022-10-31T11:08:57.467Z,25.23
2022-10-31T11:18:43.446Z,36.10
2022-10-31T11:22:47.453Z,28.33
2022-10-31T11:26:52.105Z,33.58
2022-10-31T11:30:57.687Z,31.55
2022-10-31T11:35:02.922Z,30.15
2022-10-31T11:39:07.379Z,31.10
2022-10-31T11:43:19.153Z,37.30
2022-10-31T11:47:29.760Z,26.20
2022-10-31T11:51:44.197Z,33.70
2022-10-31T11:55:47.529Z,33.67
2022-10-31T12:00:26.009Z,34.55
2022-10-31T12:04:52.380Z,36.92
2022-10-31T12:08:54.185Z,40.90
2022-10-31T12:13:03.685Z,32.13
2022-10-31T12:17:26.815Z,34.35
2022-10-31T12:21:44.480Z,32.88
2022-10-31T12:26:11.331Z,35.63
2022-10-31T12:30:24.434Z,34.45
2022-10-31T12:35:04.482Z,44.03
2022-10-31T12:39:42.971Z,33.42
2022-10-31T12:44:13.506Z,30.83
2022-10-31T12:48:24.907Z,31.30
2022-10-31T12:52:36.812Z,35.35
2022-10-31T12:57:07.543Z,35.38
2022-10-31T13:05:47.484Z,33.92
2022-10-31T13:10:02.829Z,33.88
2022-10-31T13:14:28.643Z,31.90
2022-10-31T13:18:36.044Z,33.05
2022-10-31T13:22:38.794Z,26.65
2022-10-31T13:26:50.683Z,32.80
2022-10-31T13:30:53.814Z,25.73
2022-10-31T13:34:58.460Z,31.52
2022-10-31T13:39:30.344Z,32.10
2022-10-31T13:43:53.251Z,31.45
2022-10-31T13:48:15.225Z,28.73
2022-10-31T13:52:25.441Z,31.90
2022-10-31T13:56:36.808Z,30.70
2022-10-31T14:00:40.476Z,29.05
2022-10-31T14:13:23.052Z,33.47
2022-10-31T14:17:34.076Z,32.00
2022-10-31T14:21:43.865Z,29.73
2022-10-31T14:30:15.576Z,34.22
2022-10-31T14:34:32.964Z,30.52
2022-10-31T14:38:48.750Z,33.03
2022-10-31T14:42:50.914Z,38.72
2022-10-31T14:47:22.453Z,38.92
2022-10-31T14:51:29.503Z,32.97
2022-10-31T14:55:31.801Z,35.70
2022-10-31T14:59:39.094Z,30.83
2022-10-31T15:04:17.746Z,32.47
2022-10-31T15:08:38.819Z,34.10
2022-10-31T15:12:40.520Z,39.78
2022-10-31T15:16:44.502Z,33.65
2022-10-31T15:20:51.435Z,28.50
2022-10-31T15:24:59.847Z,35.97
2022-10-31T15:29:12.138Z,40.80
2022-10-31T15:33:26.042Z,34.67
2022-10-31T15:37:29.645Z,30.63
2022-10-31T15:41:54.956Z,32.53
2022-10-31T15:46:07.009Z,33.22
2022-10-31T15:50:42.028Z,38.05
2022-10-31T15:59:23.720Z,37.05
2022-10-31T16:03:49.025Z,38.13
2022-10-31T16:07:52.922Z,39.28
2022-10-31T16:12:22.813Z,38.08
2022-10-31T16:16:40.456Z,37.88
2022-10-31T16:21:00.633Z,38.72
2022-10-31T16:25:41.777Z,44.50
2022-10-31T16:30:01.394Z,44.17
2022-10-31T16:34:12.505Z,41.92
2022-10-31T16:42:34.036Z,49.33
2022-10-31T16:46:44.801Z,46.83
2022-10-31T16:50:47.592Z,37.85
2022-10-31T16:54:49.624Z,39.10
2022-10-31T16:59:01.048Z,38.30
2022-10-31T17:03:03.047Z,46.22
2022-10-31T17:07:04.770Z,65.63
2022-10-31T17:11:09.493Z,65.60
2022-10-31T17:15:26.215Z,79.03
2022-10-31T17:19:32.322Z,67.35
2022-10-31T17:23:34.425Z,45.40
2022-10-31T17:27:36.139Z,43.63
2022-10-31T17:31:43.965Z,52.30
2022-10-31T17:35:48.866Z,55.65
2022-10-31T17:44:06.426Z,41.53
2022-10-31T17:48:11.589Z,42.25
2022-10-31T17:52:13.485Z,41.75
2022-10-31T17:56:15.369Z,43.70
2022-10-31T18:04:37.688Z,29.25
2022-10-31T18:08:40.923Z,24.27
2022-10-31T18:12:50.921Z,35.75
2022-10-31T18:16:52.724Z,28.57
2022-10-31T18:20:58.040Z,33.00
2022-10-31T18:25:02.105Z,53.87
2022-10-31T18:29:04.273Z,56.78
2022-10-31T18:33:06.039Z,51.13
2022-10-31T18:37:07.735Z,41.47
2022-10-31T18:41:09.545Z,47.73
2022-10-31T18:45:30.286Z,83.57
2022-10-31T18:49:33.879Z,70.03
2022-10-31T18:53:36.317Z,116.23
2022-10-31T18:57:38.237Z,81.15
2022-10-31T19:01:42.238Z,77.60
2022-10-31T19:05:44.402Z,82.28
2022-10-31T19:09:46.106Z,53.33
2022-10-31T19:13:48.102Z,107.47
2022-10-31T19:17:49.935Z,101.63
2022-10-31T19:21:51.889Z,69.07
2022-10-31T19:26:05.195Z,69.97
2022-10-31T19:30:10.129Z,72.73
2022-10-31T19:34:11.892Z,94.95
2022-10-31T19:38:13.789Z,105.63
2022-10-31T19:42:15.465Z,113.17
2022-10-31T19:46:27.735Z,81.85
2022-10-31T19:50:40.878Z,65.87
2022-10-31T19:54:42.644Z,82.20
2022-10-31T19:59:03.136Z,71.15
2022-10-31T20:03:05.364Z,55.00
2022-10-31T20:07:08.046Z,79.43
2022-10-31T20:11:09.769Z,63.10
2022-10-31T20:15:11.468Z,41.97
2022-10-31T20:19:13.286Z,45.38
2022-10-31T20:23:15.173Z,55.90
2022-10-31T20:27:16.890Z,96.90
2022-10-31T20:31:20.946Z,76.57
2022-10-31T20:35:22.649Z,74.93
2022-10-31T20:39:24.337Z,92.10
2022-10-31T20:43:26.032Z,55.47
2022-10-31T20:47:27.694Z,74.10
2022-10-31T20:51:32.050Z,45.70
2022-10-31T20:55:33.997Z,30.37
2022-10-31T20:59:35.865Z,73.22
2022-10-31T21:03:37.756Z,42.10
2022-10-31T21:07:40.092Z,42.03
2022-10-31T21:11:41.910Z,31.73
2022-10-31T21:15:43.881Z,29.95
2022-10-31T21:19:45.653Z,29.40
2022-10-31T21:23:53.614Z,67.13
2022-10-31T21:27:55.312Z,42.17
2022-10-31T21:31:57.022Z,56.90
2022-10-31T21:35:58.750Z,26.87
2022-10-31T21:40:00.543Z,36.60
2022-10-31T21:44:02.213Z,35.60
2022-10-31T21:48:04.032Z,42.17
2022-10-31T21:52:05.758Z,31.13
2022-10-31T21:56:08.078Z,34.53
2022-10-31T22:00:10.822Z,38.70
2022-10-31T22:04:12.616Z,41.37
2022-10-31T22:08:14.285Z,49.07
2022-10-31T22:12:16.529Z,37.57
2022-10-31T22:16:20.231Z,31.00
2022-10-31T22:20:23.902Z,61.40
2022-10-31T22:24:25.681Z,48.40
2022-10-31T22:28:29.930Z,80.63
2022-10-31T22:32:31.649Z,56.70
2022-10-31T22:36:33.741Z,59.15
2022-10-31T22:40:35.427Z,162.70
2022-10-31T22:44:37.120Z,157.57
2022-10-31T22:48:44.714Z,53.47
2022-10-31T22:52:46.392Z,121.63
2022-10-31T22:56:48.117Z,81.43
2022-10-31T23:00:49.875Z,91.53
2022-10-31T23:04:51.549Z,56.37
2022-10-31T23:08:54.158Z,47.63
2022-10-31T23:13:14.370Z,52.17
2022-10-31T23:17:19.069Z,71.87
2022-10-31T23:21:43.740Z,40.50
2022-10-31T23:26:04.292Z,51.47
2022-10-31T23:30:06.480Z,35.47
2022-10-31T23:34:08.114Z,76.03
2022-10-31T23:38:09.833Z,31.20
2022-10-31T23:42:11.708Z,41.70
2022-10-31T23:46:13.367Z,37.50
2022-10-31T23:50:15.089Z,37.43
2022-10-31T23:54:16.755Z,53.40
2022-10-31T23:58:18.411Z,58.73
